createdAt,value
2023-03-18T00:00:00.691Z,27.70
2023-03-18T00:03:03.087Z,27.90
2023-03-18T00:06:09.654Z,27.80
2023-03-18T00:09:13.500Z,27.50
2023-03-18T00:12:15.487Z,27.30
2023-03-18T00:15:18.965Z,27.40
2023-03-18T00:18:20.935Z,27.70
2023-03-18T00:21:23.631Z,27.70
2023-03-18T00:24:27.844Z,27.60
2023-03-18T00:27:31.622Z,27.70
2023-03-18T00:30:37.379Z,27.80
2023-03-18T00:33:41.174Z,27.80
2023-03-18T00:36:45.671Z,27.60
2023-03-18T00:39:48.046Z,27.80
2023-03-18T00:42:57.577Z,27.70
2023-03-18T00:46:00.590Z,27.80
2023-03-18T00:49:06.312Z,27.90
2023-03-18T00:52:08.666Z,27.50
2023-03-18T00:55:11.071Z,27.70
2023-03-18T00:58:13.635Z,27.80
2023-03-18T01:01:17.862Z,27.90
2023-03-18T01:04:21.532Z,27.80
2023-03-18T01:07:24.228Z,27.70
2023-03-18T01:10:27.243Z,27.60
2023-03-18T01:13:30.135Z,27.40
2023-03-18T01:16:32.619Z,27.60
2023-03-18T01:19:35.861Z,27.50
2023-03-18T01:22:41.364Z,27.80
2023-03-18T01:25:44.671Z,27.60
2023-03-18T01:28:48.050Z,27.50
2023-03-18T01:31:51.405Z,27.50
2023-03-18T01:34:53.736Z,27.70
2023-03-18T01:37:55.742Z,27.50
2023-03-18T01:40:59.643Z,27.50
2023-03-18T01:44:02.214Z,27.40
2023-03-18T01:47:04.585Z,27.50
2023-03-18T01:50:06.832Z,27.30
2023-03-18T01:53:13.856Z,27.20
2023-03-18T01:56:17.964Z,27.30
2023-03-18T01:59:22.537Z,27.50
2023-03-18T02:02:26.136Z,27.40
2023-03-18T02:05:29.696Z,27.30
2023-03-18T02:08:31.693Z,27.20
2023-03-18T02:11:38.473Z,27.20
2023-03-18T02:14:41.059Z,27.20
2023-03-18T02:17:49.501Z,27.10
2023-03-18T02:21:03.607Z,27.20
2023-03-18T02:24:18.058Z,27.10
2023-03-18T02:27:25.699Z,27.20
2023-03-18T02:30:33.913Z,27.40
2023-03-18T02:33:39.651Z,27.30
2023-03-18T02:36:42.656Z,27.10
2023-03-18T02:39:44.734Z,27.20
2023-03-18T02:42:48.077Z,27.40
2023-03-18T02:46:08.237Z,27.40
2023-03-18T02:49:11.019Z,27.50
2023-03-18T02:52:13.102Z,27.60
2023-03-18T02:55:15.667Z,27.50
2023-03-18T02:58:17.968Z,27.40
2023-03-18T03:01:20.702Z,27.40
2023-03-18T03:04:25.622Z,27.40
2023-03-18T03:07:28.402Z,27.10
2023-03-18T03:10:30.897Z,27.30
2023-03-18T03:13:33.615Z,27.30
2023-03-18T03:16:39.535Z,27.10
2023-03-18T03:19:41.926Z,27.10
2023-03-18T03:22:44.755Z,27.20
2023-03-18T03:25:47.152Z,27.30
2023-03-18T03:28:49.305Z,27.20
2023-03-18T03:31:51.787Z,27.10
2023-03-18T03:34:53.789Z,27.20
2023-03-18T03:37:56.888Z,27.30
2023-03-18T03:40:59.018Z,27.30
2023-03-18T03:44:01.387Z,27.40
2023-03-18T03:47:04.058Z,27.50
2023-03-18T03:50:06.912Z,27.50
2023-03-18T03:53:10.474Z,27.40
2023-03-18T03:56:12.851Z,27.50
2023-03-18T03:59:14.983Z,27.30
2023-03-18T04:02:18.048Z,27.20
2023-03-18T04:05:24.141Z,27.50
2023-03-18T04:08:27.097Z,27.50
2023-03-18T04:11:29.849Z,27.50
2023-03-18T04:14:32.086Z,27.70
2023-03-18T04:17:35.105Z,27.60
2023-03-18T04:20:38.788Z,27.70
2023-03-18T04:23:41.034Z,27.70
2023-03-18T04:26:43.748Z,27.80
2023-03-18T04:29:46.623Z,27.80
2023-03-18T04:32:50.447Z,27.90
2023-03-18T04:35:53.489Z,27.80
2023-03-18T04:38:57.005Z,27.80
2023-03-18T04:41:59.018Z,27.90
2023-03-18T04:45:02.193Z,28.00
2023-03-18T04:48:04.418Z,28.10
2023-03-18T04:51:08.481Z,28.10
2023-03-18T04:54:12.338Z,28.00
2023-03-18T04:57:14.926Z,28.10
2023-03-18T05:00:21.496Z,28.00
2023-03-18T05:03:23.891Z,28.00
2023-03-18T05:06:29.075Z,28.00
2023-03-18T05:09:31.538Z,28.10
2023-03-18T05:12:34.252Z,27.90
2023-03-18T05:15:37.597Z,27.90
2023-03-18T05:18:41.174Z,27.90
2023-03-18T05:21:43.476Z,28.00
2023-03-18T05:24:46.171Z,27.90
2023-03-18T05:27:49.558Z,28.00
2023-03-18T05:30:52.367Z,28.10
2023-03-18T05:33:54.855Z,28.20
2023-03-18T05:36:57.759Z,28.20
2023-03-18T05:40:00.124Z,28.30
2023-03-18T05:43:04.191Z,28.20
2023-03-18T05:46:06.687Z,28.10
2023-03-18T05:49:08.910Z,28.00
2023-03-18T05:52:11.378Z,28.20
2023-03-18T05:55:15.053Z,28.20
2023-03-18T05:58:18.406Z,28.20
2023-03-18T06:01:20.483Z,28.30
2023-03-18T06:04:22.831Z,27.90
2023-03-18T06:07:24.903Z,28.10
2023-03-18T06:10:27.907Z,28.20
2023-03-18T06:13:30.837Z,28.20
2023-03-18T06:16:35.274Z,27.90
2023-03-18T06:19:38.127Z,28.20
2023-03-18T06:22:41.108Z,28.30
2023-03-18T06:25:43.254Z,28.30
2023-03-18T06:28:46.151Z,28.20
2023-03-18T06:31:48.118Z,28.30
2023-03-18T06:34:50.626Z,28.40
2023-03-18T06:37:53.191Z,28.70
2023-03-18T06:40:56.786Z,28.80
2023-03-18T06:43:59.172Z,29.00
2023-03-18T06:47:01.715Z,29.20
2023-03-18T06:50:03.862Z,29.50
2023-03-18T06:53:06.944Z,29.70
2023-03-18T06:56:09.952Z,29.70
2023-03-18T06:59:12.278Z,29.80
2023-03-18T07:02:15.403Z,29.90
2023-03-18T07:05:18.699Z,30.10
2023-03-18T07:08:21.039Z,30.30
2023-03-18T07:11:23.515Z,30.30
2023-03-18T07:14:28.395Z,30.50
2023-03-18T07:17:30.944Z,30.30
2023-03-18T07:20:34.377Z,30.60
2023-03-18T07:23:36.877Z,30.60
2023-03-18T07:26:39.237Z,30.50
2023-03-18T07:29:41.857Z,30.50
2023-03-18T07:32:45.921Z,30.50
2023-03-18T07:36:04.630Z,30.70
2023-03-18T07:39:10.168Z,30.80
2023-03-18T07:42:12.681Z,30.80
2023-03-18T07:45:14.715Z,30.80
2023-03-18T07:48:17.083Z,30.90
2023-03-18T07:51:19.202Z,30.80
2023-03-18T07:54:21.549Z,30.90
2023-03-18T07:57:24.157Z,31.70
2023-03-18T08:00:27.238Z,31.90
2023-03-18T08:03:29.323Z,31.80
2023-03-18T08:06:32.941Z,32.00
2023-03-18T08:09:35.025Z,32.00
2023-03-18T08:12:51.285Z,31.90
2023-03-18T08:15:56.230Z,31.70
2023-03-18T08:18:58.901Z,31.70
2023-03-18T08:22:01.321Z,31.70
2023-03-18T08:25:04.452Z,31.90
2023-03-18T08:28:07.668Z,31.70
2023-03-18T08:31:10.079Z,31.70
2023-03-18T08:34:12.274Z,31.90
2023-03-18T08:37:14.659Z,31.70
2023-03-18T08:40:16.741Z,31.90
2023-03-18T08:43:22.261Z,32.40
2023-03-18T08:46:24.614Z,32.30
2023-03-18T08:49:26.992Z,31.90
2023-03-18T08:52:28.978Z,32.10
2023-03-18T08:55:34.719Z,32.20
2023-03-18T08:58:36.981Z,32.30
2023-03-18T09:01:39.916Z,32.60
2023-03-18T09:04:42.043Z,32.60
2023-03-18T09:07:45.508Z,32.50
2023-03-18T09:10:48.052Z,32.40
2023-03-18T09:13:50.798Z,32.40
2023-03-18T09:16:53.968Z,32.40
2023-03-18T09:19:56.526Z,32.60
2023-03-18T09:22:59.330Z,32.60
2023-03-18T09:26:02.214Z,32.40
2023-03-18T09:29:04.305Z,32.50
2023-03-18T09:32:06.836Z,32.40
2023-03-18T09:35:12.564Z,32.30
2023-03-18T09:38:20.836Z,32.40
2023-03-18T09:41:48.267Z,32.40
2023-03-18T09:44:58.380Z,32.70
2023-03-18T09:48:28.733Z,32.80
2023-03-18T09:52:01.296Z,32.30
2023-03-18T09:55:23.371Z,32.80
2023-03-18T09:58:40.347Z,33.00
2023-03-18T10:01:44.272Z,33.30
2023-03-18T10:04:53.481Z,33.40
2023-03-18T10:07:59.431Z,33.10
2023-03-18T10:11:10.058Z,33.00
2023-03-18T10:14:27.257Z,33.20
2023-03-18T10:17:41.898Z,33.60
2023-03-18T10:21:08.299Z,33.30
2023-03-18T10:24:35.176Z,33.20
2023-03-18T10:27:53.830Z,33.40
2023-03-18T10:31:38.707Z,33.50
2023-03-18T10:35:21.812Z,33.70
2023-03-18T10:38:59.204Z,33.80
2023-03-18T10:42:47.159Z,33.60
2023-03-18T10:45:57.873Z,33.70
2023-03-18T10:49:23.948Z,33.80
2023-03-18T10:52:41.601Z,33.80
2023-03-18T10:56:06.566Z,34.00
2023-03-18T10:59:22.507Z,33.50
2023-03-18T11:02:42.389Z,33.70
2023-03-18T11:05:53.161Z,33.70
2023-03-18T11:09:34.176Z,33.60
2023-03-18T11:12:36.438Z,34.00
2023-03-18T11:15:44.669Z,33.80
2023-03-18T11:18:49.099Z,33.60
2023-03-18T11:22:10.167Z,33.40
2023-03-18T11:25:18.216Z,33.80
2023-03-18T11:28:23.511Z,34.30
2023-03-18T11:31:25.893Z,34.50
2023-03-18T11:34:30.620Z,34.80
2023-03-18T11:37:37.322Z,34.60
2023-03-18T11:40:40.256Z,34.60
2023-03-18T11:48:19.958Z,34.40
2023-03-18T11:51:24.649Z,34.60
2023-03-18T11:54:31.805Z,34.70
2023-03-18T11:57:33.720Z,34.70
2023-03-18T12:00:50.626Z,34.40
2023-03-18T12:04:10.448Z,34.60
2023-03-18T12:07:55.751Z,34.80
2023-03-18T12:11:09.999Z,34.60
2023-03-18T12:14:25.840Z,34.90
2023-03-18T12:17:44.179Z,34.90
2023-03-18T12:20:52.576Z,35.00
2023-03-18T12:24:05.502Z,34.90
2023-03-18T12:27:22.700Z,35.30
2023-03-18T12:30:34.151Z,35.10
2023-03-18T12:33:51.446Z,35.30
2023-03-18T12:37:08.586Z,35.30
2023-03-18T12:40:30.877Z,35.60
2023-03-18T12:43:47.932Z,35.80
2023-03-18T12:46:59.980Z,35.90
2023-03-18T12:50:27.862Z,35.90
2023-03-18T12:53:35.370Z,35.90
2023-03-18T12:56:44.292Z,35.80
2023-03-18T12:59:56.753Z,35.60
2023-03-18T13:03:11.368Z,35.70
2023-03-18T13:06:20.298Z,35.90
2023-03-18T13:09:31.783Z,35.70
2023-03-18T13:12:38.589Z,35.60
2023-03-18T13:15:49.462Z,35.50
2023-03-18T13:18:56.161Z,35.60
2023-03-18T13:22:27.191Z,35.70
2023-03-18T13:25:59.260Z,35.90
2023-03-18T13:29:22.929Z,35.90
2023-03-18T13:33:00.854Z,35.80
2023-03-18T13:36:40.475Z,35.90
2023-03-18T13:40:03.897Z,35.70
2023-03-18T13:43:11.135Z,35.80
2023-03-18T13:46:23.702Z,35.90
2023-03-18T13:49:30.308Z,35.90
2023-03-18T13:52:44.117Z,35.90
2023-03-18T13:55:53.633Z,35.80
2023-03-18T13:58:56.207Z,35.80
2023-03-18T14:02:18.134Z,35.70
2023-03-18T14:05:33.934Z,35.80
2023-03-18T14:08:44.625Z,35.80
2023-03-18T14:11:47.847Z,35.70
2023-03-18T14:14:56.764Z,35.50
2023-03-18T14:18:20.300Z,35.40
2023-03-18T14:22:35.085Z,35.50
2023-03-18T14:25:42.193Z,35.50
2023-03-18T14:29:10.769Z,35.50
2023-03-18T14:32:34.121Z,35.50
2023-03-18T14:35:49.807Z,35.50
2023-03-18T14:39:19.964Z,35.20
2023-03-18T14:42:52.739Z,35.00
2023-03-18T14:46:01.839Z,34.90
2023-03-18T14:49:28.748Z,34.80
2023-03-18T14:52:35.535Z,34.80
2023-03-18T14:55:38.307Z,34.80
2023-03-18T14:58:40.937Z,34.90
2023-03-18T15:01:46.769Z,35.00
2023-03-18T15:04:58.100Z,34.90
2023-03-18T15:08:00.434Z,35.00
2023-03-18T15:11:06.049Z,35.10
2023-03-18T15:14:27.811Z,34.90
2023-03-18T15:17:30.495Z,34.80
2023-03-18T15:20:36.276Z,34.80
2023-03-18T15:23:48.266Z,34.70
2023-03-18T15:27:07.068Z,34.70
2023-03-18T15:30:50.112Z,34.70
2023-03-18T15:34:20.967Z,34.70
2023-03-18T15:37:34.481Z,34.80
2023-03-18T15:40:47.485Z,34.70
2023-03-18T15:44:13.612Z,34.60
2023-03-18T15:47:52.492Z,34.50
2023-03-18T15:51:00.749Z,34.50
2023-03-18T15:54:29.543Z,34.50
2023-03-18T15:57:38.946Z,34.50
2023-03-18T16:00:41.715Z,34.40
2023-03-18T16:03:47.952Z,34.40
2023-03-18T16:06:52.464Z,34.40
2023-03-18T16:09:54.794Z,34.30
2023-03-18T16:13:01.948Z,34.30
2023-03-18T16:16:08.322Z,34.30
2023-03-18T16:19:30.977Z,34.20
2023-03-18T16:22:34.184Z,34.20
2023-03-18T16:25:36.200Z,34.10
2023-03-18T16:28:39.469Z,34.20
2023-03-18T16:31:44.020Z,34.20
2023-03-18T16:34:46.984Z,34.20
2023-03-18T16:37:49.546Z,34.10
2023-03-18T16:40:54.735Z,34.20
2023-03-18T16:43:56.966Z,34.10
2023-03-18T16:46:59.365Z,34.00
2023-03-18T16:50:01.390Z,34.00
2023-03-18T16:53:13.731Z,33.90
2023-03-18T16:56:18.358Z,33.80
2023-03-18T16:59:20.718Z,33.70
2023-03-18T17:02:35.252Z,33.70
2023-03-18T17:05:37.789Z,33.50
2023-03-18T17:08:40.139Z,33.40
2023-03-18T17:11:43.455Z,33.30
2023-03-18T17:14:55.385Z,33.20
2023-03-18T17:18:00.721Z,33.10
2023-03-18T17:21:05.390Z,33.00
2023-03-18T17:24:08.007Z,32.90
2023-03-18T17:27:16.082Z,32.90
2023-03-18T17:30:24.088Z,32.80
2023-03-18T17:33:30.995Z,32.70
2023-03-18T17:36:33.413Z,32.60
2023-03-18T17:39:36.561Z,32.50
2023-03-18T17:42:41.163Z,32.40
2023-03-18T17:45:43.174Z,32.30
2023-03-18T17:48:46.268Z,32.20
2023-03-18T17:51:48.999Z,32.20
2023-03-18T17:54:51.841Z,32.10
2023-03-18T17:57:53.921Z,32.10
2023-03-18T18:01:15.440Z,32.10
2023-03-18T18:04:20.623Z,32.00
2023-03-18T18:07:23.644Z,32.00
2023-03-18T18:10:26.001Z,32.00
2023-03-18T18:13:29.189Z,31.90
2023-03-18T18:16:31.323Z,31.80
2023-03-18T18:19:33.790Z,31.80
2023-03-18T18:22:44.500Z,31.80
2023-03-18T18:25:46.761Z,31.70
2023-03-18T18:28:51.348Z,31.70
2023-03-18T18:31:54.082Z,31.60
2023-03-18T18:34:56.874Z,31.50
2023-03-18T18:37:59.351Z,31.40
2023-03-18T18:41:07.884Z,31.30
2023-03-18T18:44:10.304Z,31.20
2023-03-18T18:47:21.729Z,31.20
2023-03-18T18:50:29.960Z,31.10
2023-03-18T18:53:36.556Z,31.10
2023-03-18T18:56:38.878Z,31.00
2023-03-18T18:59:40.928Z,30.90
2023-03-18T19:02:43.977Z,30.80
2023-03-18T19:05:49.148Z,30.70
2023-03-18T19:08:52.504Z,30.60
2023-03-18T19:11:56.442Z,30.50
2023-03-18T19:14:59.798Z,30.50
2023-03-18T19:18:02.030Z,30.40
2023-03-18T19:21:04.865Z,30.40
2023-03-18T19:24:31.501Z,30.30
2023-03-18T19:27:34.038Z,30.30
2023-03-18T19:30:36.272Z,30.20
2023-03-18T19:33:39.683Z,30.20
2023-03-18T19:36:44.408Z,30.20
2023-03-18T19:39:49.432Z,30.10
2023-03-18T19:42:51.510Z,30.10
2023-03-18T19:45:53.886Z,30.20
2023-03-18T19:48:56.069Z,30.10
2023-03-18T19:51:58.508Z,30.00
2023-03-18T19:55:04.516Z,30.00
2023-03-18T19:58:07.700Z,30.00
2023-03-18T20:01:09.738Z,30.00
2023-03-18T20:04:15.814Z,29.90
2023-03-18T20:07:20.233Z,29.90
2023-03-18T20:10:22.929Z,29.80
2023-03-18T20:13:25.044Z,29.80
2023-03-18T20:16:33.461Z,29.80
2023-03-18T20:19:37.129Z,29.70
2023-03-18T20:22:42.489Z,29.70
2023-03-18T20:25:46.478Z,29.60
2023-03-18T20:28:53.791Z,29.60
2023-03-18T20:31:56.644Z,29.60
2023-03-18T20:34:59.321Z,29.60
2023-03-18T20:38:17.466Z,29.50
2023-03-18T20:41:20.215Z,29.50
2023-03-18T20:44:22.281Z,29.50
2023-03-18T20:47:24.571Z,29.50
2023-03-18T20:50:31.166Z,29.40
2023-03-18T20:53:33.520Z,29.40
2023-03-18T20:56:35.983Z,29.40
2023-03-18T20:59:38.292Z,29.40
2023-03-18T21:02:41.688Z,29.30
2023-03-18T21:05:43.983Z,29.20
2023-03-18T21:08:46.006Z,29.20
2023-03-18T21:11:48.837Z,29.20
2023-03-18T21:14:51.142Z,29.20
2023-03-18T21:17:54.107Z,29.20
2023-03-18T21:20:57.027Z,29.20
2023-03-18T21:23:59.379Z,29.10
2023-03-18T21:27:05.181Z,29.10
2023-03-18T21:30:09.963Z,29.10
2023-03-18T21:33:26.241Z,29.00
2023-03-18T21:36:29.258Z,28.90
2023-03-18T21:39:32.255Z,28.90
2023-03-18T21:42:35.449Z,28.80
2023-03-18T21:45:37.774Z,28.80
2023-03-18T21:48:40.504Z,28.80
2023-03-18T21:51:43.177Z,28.80
2023-03-18T21:54:46.848Z,28.70
2023-03-18T21:57:49.624Z,28.60
2023-03-18T22:00:56.466Z,28.70
2023-03-18T22:03:58.886Z,28.60
2023-03-18T22:07:01.725Z,28.70
2023-03-18T22:10:06.219Z,28.70
2023-03-18T22:13:17.540Z,28.60
2023-03-18T22:16:21.104Z,28.60
2023-03-18T22:19:24.358Z,28.60
2023-03-18T22:22:35.228Z,28.60
2023-03-18T22:25:37.615Z,28.60
2023-03-18T22:28:40.812Z,28.60
2023-03-18T22:31:43.154Z,28.60
2023-03-18T22:34:45.247Z,28.50
2023-03-18T22:37:48.033Z,28.50
2023-03-18T22:40:52.909Z,28.50
2023-03-18T22:43:55.778Z,28.40
2023-03-18T22:46:57.810Z,28.40
2023-03-18T22:50:00.262Z,28.40
2023-03-18T22:53:05.981Z,28.40
2023-03-18T22:56:14.296Z,28.30
2023-03-18T22:59:16.258Z,28.40
2023-03-18T23:02:25.156Z,28.30
2023-03-18T23:05:27.294Z,28.30
2023-03-18T23:08:29.992Z,28.30
2023-03-18T23:11:32.124Z,28.20
2023-03-18T23:14:34.341Z,28.20
2023-03-18T23:17:36.360Z,28.20
2023-03-18T23:20:38.642Z,28.20
2023-03-18T23:23:41.177Z,28.20
2023-03-18T23:26:43.461Z,28.20
2023-03-18T23:29:45.947Z,28.10
2023-03-18T23:32:48.237Z,28.00
2023-03-18T23:35:50.294Z,28.00
2023-03-18T23:38:52.620Z,28.10
2023-03-18T23:41:54.626Z,28.00
2023-03-18T23:44:57.007Z,28.00
2023-03-18T23:47:59.052Z,28.00
2023-03-18T23:51:04.168Z,28.10
2023-03-18T23:54:06.724Z,28.00
2023-03-18T23:57:10.760Z,28.00
